createdAt,value
2023-05-12T00:02:14.620Z,951.45
2023-05-12T00:07:16.673Z,951.44
2023-05-12T00:12:18.444Z,951.46
2023-05-12T00:17:19.824Z,951.39
2023-05-12T00:22:21.862Z,951.38
2023-05-12T00:27:23.833Z,951.3
2023-05-12T00:32:25.162Z,951.24
2023-05-12T00:37:26.894Z,951.22
2023-05-12T00:42:37.614Z,951.23
2023-05-12T00:47:30.274Z,951.17
2023-05-12T00:52:32.206Z,951.21
2023-05-12T00:57:33.918Z,951.27
2023-05-12T01:02:35.600Z,951.28
2023-05-12T01:07:37.211Z,951.29
2023-05-12T01:12:38.976Z,951.29
2023-05-12T01:17:48.334Z,951.23
2023-05-12T01:22:42.026Z,951.25
2023-05-12T01:27:43.694Z,951.23
2023-05-12T01:32:53.137Z,951.22
2023-05-12T01:38:05.351Z,951.18
2023-05-12T01:42:49.358Z,951.16
2023-05-12T01:47:50.950Z,951.16
2023-05-12T01:52:52.635Z,951.15
2023-05-12T01:58:03.377Z,951.15
2023-05-12T02:02:55.766Z,951.18
2023-05-12T02:07:57.143Z,951.15
2023-05-12T02:12:59.229Z,951.18
2023-05-12T02:18:00.690Z,951.18
2023-05-12T02:23:02.436Z,951.15
2023-05-12T02:28:03.962Z,951.15
2023-05-12T02:33:05.983Z,951.1
2023-05-12T02:38:07.167Z,951.11
2023-05-12T02:43:08.840Z,951.11
2023-05-12T02:48:19.658Z,951.05
2023-05-12T02:53:11.997Z,951.09
2023-05-12T02:58:13.195Z,951.08
2023-05-12T03:03:15.463Z,951.06
2023-05-12T03:08:17.553Z,951.12
2023-05-12T03:18:21.210Z,951.13
2023-05-12T03:38:27.532Z,951.25
2023-05-12T03:53:33.645Z,951.23
2023-05-12T03:58:35.386Z,951.29
2023-05-12T04:03:37.358Z,951.31
2023-05-12T04:08:41.805Z,951.28
2023-05-12T04:13:40.926Z,951.29
2023-05-12T04:18:48.771Z,951.27
2023-05-12T04:23:50.789Z,951.32
2023-05-12T04:28:52.722Z,951.39
2023-05-12T04:33:54.674Z,951.43
2023-05-12T04:38:56.348Z,951.42
2023-05-12T04:44:00.580Z,951.48
2023-05-12T04:48:59.309Z,951.48
2023-05-12T04:54:00.560Z,951.52
2023-05-12T04:59:02.694Z,951.57
2023-05-12T05:04:04.332Z,951.65
2023-05-12T05:09:06.030Z,951.62
2023-05-12T05:14:08.172Z,951.56
2023-05-12T05:19:19.458Z,951.63
2023-05-12T05:24:11.575Z,951.65
2023-05-12T05:29:13.548Z,951.68
2023-05-12T05:34:15.385Z,951.72
2023-05-12T05:39:16.984Z,951.75
2023-05-12T05:44:18.232Z,951.8
2023-05-12T05:49:20.028Z,951.79
2023-05-12T05:54:21.312Z,951.73
2023-05-12T05:59:30.590Z,951.83
2023-05-12T06:04:24.283Z,951.87
2023-05-12T06:09:25.897Z,951.93
2023-05-12T06:14:27.994Z,951.92
2023-05-12T06:19:29.515Z,951.96
2023-05-12T06:24:31.142Z,951.96
2023-05-12T06:29:33.028Z,951.98
2023-05-12T06:34:34.922Z,951.96
2023-05-12T06:39:36.192Z,952
2023-05-12T06:44:38.122Z,951.95
2023-05-12T06:49:39.342Z,951.96
2023-05-12T06:54:40.753Z,951.96
2023-05-12T06:59:42.518Z,951.96
2023-05-12T07:04:44.039Z,951.97
2023-05-12T07:09:45.419Z,952.01
2023-05-12T07:14:46.909Z,952.06
2023-05-12T07:19:48.668Z,952.09
2023-05-12T07:24:50.585Z,952.05
2023-05-12T07:29:52.589Z,952.1
2023-05-12T07:34:54.411Z,952.07
2023-05-12T07:39:56.066Z,952.09
2023-05-12T07:44:57.252Z,951.99
2023-05-12T07:49:59.194Z,952
2023-05-12T07:55:00.927Z,952.05
2023-05-12T08:00:02.962Z,952.02
2023-05-12T08:05:04.406Z,951.99
2023-05-12T08:10:06.321Z,951.98
2023-05-12T08:15:08.033Z,952.01
2023-05-12T08:20:09.674Z,951.99
2023-05-12T08:25:12.658Z,952.04
2023-05-12T08:30:13.853Z,952.05
2023-05-12T08:35:15.159Z,952.07
2023-05-12T08:40:16.894Z,952.04
2023-05-12T08:45:18.747Z,952.06
2023-05-12T08:50:19.963Z,952.06
2023-05-12T08:55:22.711Z,952.09
2023-05-12T09:00:23.602Z,952.05
2023-05-12T09:05:25.646Z,952.07
2023-05-12T09:10:34.731Z,952.04
2023-05-12T09:15:28.317Z,952.06
2023-05-12T09:20:31.628Z,952.02
2023-05-12T09:25:31.189Z,952.02
2023-05-12T09:30:32.944Z,952.01
2023-05-12T09:35:34.929Z,952.01
2023-05-12T09:40:36.124Z,951.92
2023-05-12T09:45:37.775Z,951.98
2023-05-12T09:50:47.094Z,952.06
2023-05-12T09:55:41.703Z,952.01
2023-05-12T10:01:06.444Z,952.01
2023-05-12T10:05:45.973Z,951.98
2023-05-12T10:10:47.906Z,951.95
2023-05-12T10:15:49.274Z,951.97
2023-05-12T10:20:51.386Z,952.03
2023-05-12T10:25:52.988Z,951.95
2023-05-12T10:30:54.864Z,952.03
2023-05-12T10:35:56.088Z,952
2023-05-12T10:40:58.210Z,951.96
2023-05-12T10:46:00.415Z,952.03
2023-05-12T10:51:02.204Z,952.02
2023-05-12T10:56:03.663Z,952.03
2023-05-12T11:01:06.110Z,952.06
2023-05-12T11:06:07.362Z,952.08
2023-05-12T11:11:08.968Z,952.09
2023-05-12T11:16:17.859Z,952.09
2023-05-12T11:21:11.666Z,952.13
2023-05-12T11:26:13.503Z,952.13
2023-05-12T11:31:15.257Z,952.15
2023-05-12T11:36:17.170Z,952.18
2023-05-12T11:41:19.016Z,952.22
2023-05-12T11:46:20.873Z,952.22
2023-05-12T11:51:22.806Z,952.26
2023-05-12T11:56:24.221Z,952.28
2023-05-12T12:01:25.814Z,952.28
2023-05-12T12:06:27.205Z,952.27
2023-05-12T12:11:29.125Z,952.28
2023-05-12T12:16:31.227Z,952.29
2023-05-12T12:21:32.494Z,952.32
2023-05-12T12:26:34.100Z,952.33
2023-05-12T12:31:36.112Z,952.36
2023-05-12T12:36:37.354Z,952.39
2023-05-12T12:41:38.637Z,952.44
2023-05-12T12:46:40.165Z,952.43
2023-05-12T12:51:46.065Z,952.44
2023-05-12T12:56:43.646Z,952.47
2023-05-12T13:01:45.175Z,952.45
2023-05-12T13:06:46.975Z,952.47
2023-05-12T13:11:48.625Z,952.38
2023-05-12T13:16:50.142Z,952.42
2023-05-12T13:21:52.168Z,952.35
2023-05-12T13:26:53.651Z,952.44
2023-05-12T13:31:55.733Z,952.43
2023-05-12T13:36:59.398Z,952.37
2023-05-12T13:41:58.941Z,952.39
2023-05-12T13:47:00.536Z,952.41
2023-05-12T13:52:02.256Z,952.41
2023-05-12T13:57:04.121Z,952.45
2023-05-12T14:02:05.976Z,952.35
2023-05-12T14:07:08.837Z,952.36
2023-05-12T14:12:09.923Z,952.37
2023-05-12T14:17:11.842Z,952.39
2023-05-12T14:22:25.192Z,952.42
2023-05-12T14:27:15.470Z,952.48
2023-05-12T14:32:16.810Z,952.49
2023-05-12T14:37:18.633Z,952.48
2023-05-12T14:42:19.916Z,952.47
2023-05-12T14:47:21.921Z,952.43
2023-05-12T14:52:24.066Z,952.5
2023-05-12T14:57:25.556Z,952.5
2023-05-12T15:02:27.407Z,952.53
2023-05-12T15:07:28.619Z,952.52
2023-05-12T15:12:30.268Z,952.54
2023-05-12T15:17:31.749Z,952.54
2023-05-12T15:22:33.642Z,952.6
2023-05-12T15:27:35.405Z,952.66
2023-05-12T15:32:37.652Z,952.61
2023-05-12T15:37:39.265Z,952.62
2023-05-12T15:42:40.839Z,952.62
2023-05-12T15:47:42.431Z,952.65
2023-05-12T15:52:43.693Z,952.71
2023-05-12T15:57:45.465Z,952.76
2023-05-12T16:02:47.298Z,952.73
2023-05-12T16:07:49.406Z,952.73
2023-05-12T16:12:51.483Z,952.75
2023-05-12T16:17:53.660Z,952.72
2023-05-12T16:22:55.754Z,952.78
2023-05-12T16:27:57.748Z,952.82
2023-05-12T16:32:59.398Z,952.82
2023-05-12T16:38:01.321Z,952.79
2023-05-12T16:43:02.682Z,952.8
2023-05-12T16:48:04.210Z,952.82
2023-05-12T16:53:06.335Z,952.87
2023-05-12T16:58:07.553Z,952.82
2023-05-12T17:03:09.791Z,952.86
2023-05-12T17:08:11.646Z,952.91
2023-05-12T17:13:13.712Z,952.96
2023-05-12T17:18:15.120Z,952.97
2023-05-12T17:23:16.884Z,953
2023-05-12T17:33:20.468Z,953.02
2023-05-12T18:28:39.763Z,953.31
2023-05-12T18:33:41.356Z,953.3
2023-05-12T18:38:42.646Z,953.34
2023-05-12T18:43:43.908Z,953.32
2023-05-12T18:48:45.959Z,953.38
2023-05-12T18:53:47.409Z,953.37
2023-05-12T18:58:48.765Z,953.43
2023-05-12T19:03:50.214Z,953.5
2023-05-12T19:08:51.849Z,953.55
2023-05-12T19:13:53.932Z,953.56
2023-05-12T19:18:55.202Z,953.57
2023-05-12T19:23:56.567Z,953.58
2023-05-12T19:28:58.470Z,953.62
2023-05-12T19:34:00.299Z,953.64
2023-05-12T19:39:02.008Z,953.62
2023-05-12T19:44:03.270Z,953.64
2023-05-12T19:49:04.653Z,953.66
2023-05-12T19:54:06.521Z,953.64
2023-05-12T19:59:08.162Z,953.67
2023-05-12T20:04:10.030Z,953.67
2023-05-12T20:09:12.143Z,953.63
2023-05-12T20:14:14.036Z,953.61
2023-05-12T20:19:15.804Z,953.63
2023-05-12T20:24:17.776Z,953.57
2023-05-12T20:29:19.717Z,953.6
2023-05-12T20:34:21.534Z,953.65
2023-05-12T20:39:23.654Z,953.59
2023-05-12T20:44:25.376Z,953.62
2023-05-12T20:49:27.497Z,953.58
2023-05-12T20:54:29.591Z,953.59
2023-05-12T20:59:40.590Z,953.52
2023-05-12T21:04:48.656Z,953.55
2023-05-12T21:09:50.594Z,953.61
2023-05-12T21:14:52.569Z,953.6
2023-05-12T21:19:54.370Z,953.57
2023-05-12T21:24:56.009Z,953.56
2023-05-12T21:29:57.689Z,953.56
2023-05-12T21:34:59.564Z,953.57
2023-05-12T21:40:01.143Z,953.57
2023-05-12T21:45:02.637Z,953.56
2023-05-12T21:50:04.154Z,953.57
2023-05-12T21:55:05.962Z,953.54
2023-05-12T22:00:07.660Z,953.52
2023-05-12T22:05:08.868Z,953.56
2023-05-12T22:10:10.985Z,953.57
2023-05-12T22:15:12.919Z,953.6
2023-05-12T22:20:14.362Z,953.62
2023-05-12T22:25:25.531Z,953.59
2023-05-12T22:30:17.824Z,953.56
2023-05-12T22:35:19.155Z,953.55
2023-05-12T22:40:21.280Z,953.52
2023-05-12T22:45:23.300Z,953.5
2023-05-12T22:50:24.757Z,953.48
2023-05-12T22:55:26.474Z,953.45
2023-05-12T23:00:28.032Z,953.39
2023-05-12T23:05:29.234Z,953.38
2023-05-12T23:10:31.342Z,953.36
2023-05-12T23:15:33.421Z,953.39
2023-05-12T23:20:34.986Z,953.34
2023-05-12T23:25:36.862Z,953.28
2023-05-12T23:30:38.702Z,953.28
2023-05-12T23:35:40.215Z,953.22
2023-05-12T23:40:41.386Z,953.16
2023-05-12T23:45:42.758Z,953.19
2023-05-12T23:50:44.121Z,953.22
2023-05-12T23:55:45.494Z,953.28
